KCPR/CPR METAR and TAF weather

Enter ICAO airport designator
Station Type Date Time Source
KCPR METAR 2019/12/11 14:53 UTC NOAA

KCPR 111453Z 22014G21KT 10SM CLR M01/M07 A3001 RMK AO2 PK WND 23033/1406 SNB09E13 SLP184 P0000 60000 T10061072 56006


Station Type Date Time Source
KCPR Decoded METAR 2019/12/11 14:53 UTC NOAA

NATRONA COUNTY INTERNATIONAL AIRPORT , WY, United States (KCPR) 42-54N 106-28W 1621M
Dec 11, 2019 - 09:53 AM EST / 2019.12.11 1453 UTC
Wind: from the SW (220 degrees) at 16 MPH (14 KT) gusting to 24 MPH (21 KT):0
Visibility: 10 mile(s):0
Sky conditions: clear
Precipitation last hour: A trace
Temperature: 30.9 F (-0.6 C)
Windchill: 19 F (-7 C):1
Dew Point: 19.0 F (-7.2 C)
Relative Humidity: 60%
Pressure (altimeter): 30.01 in. Hg (1016 hPa)
Pressure tendency: 0.02 inches (0.6 hPa) lower than three hours ago
ob: KCPR 111453Z 22014G21KT 10SM CLR M01/M07 A3001 RMK AO2 PK WND 23033/1406 SNB09E13 SLP184 P0000 60000 T10061072 56006
cycle: 15

Station Type Date Time Source
KCPR TAF 2019/12/11 12:39 UTC NOAA

TAF KCPR 111135Z 1112/1212 22022G30KT P6SM SCT110 BKN200
FM120100 24013G23KT P6SM SCT150
FM121000 24012G25KT P6SM SCT120

Example: see airport list